Startpagina
METAR-TAF:

METAR-TAF

Vliegvelden :

Aeroport de Girona-Costa Brava

Gerona, Spanje

breedte: 41-54N, lengte: 002-46E, hoogte: 143 m

Actueel weer

Dit bericht is 37 minuten geleden gemaakt, om 14:00 UTC
Wind 5 kt uit het zuiden, variërend tussen het oosten en het zuidwesten
Temperatuur 31°C
Vochtigheid 49%
Druk 1016 hPa
Zicht 10 km of meer
geen wolken onder 1500 m en geen cumulonimbus

METAR: LEGE 091400Z 17005KT 100V220 CAVOK 31/19 Q1016

Tijdstip: 16:37 (14:37 UTC)

Verwachting

Dit bericht is 3 uur en het 37 minuten geleden gemaakt, om 11:00 UTC
Verwachting geldig van 09 om 12 UTC tot 10 om 12 UTC
Wind 3 kt uit variabele richting
Zicht 10 km of meer
Weinig wolken op 6000 ft
Wijzigt naar
van 09 om 12 UTC tot 09 om 13 UTC
Wind 10 kt uit het zuiden
Wijzigt naar
van 09 om 17 UTC tot 09 om 20 UTC
Wind 4 kt uit variabele richting

TAF: LEGE 091100Z 0912/1012 VRB03KT 9999 FEW060 TX35/0913Z TN17/1006Z BECMG 0912/0913 18010KT BECMG 0917/0920 VRB04KT

Waarnemingen en weersverwachtingen van meer dan 4000 vliegvelden (METAR en TAF).

De beschikbare stations zijn de gele en rode punten op de kaart.

Ga met uw muis naar het station om de naam te zien.

Klik dan om waarnemingen en weersverwachtingen te zien.

kaart wijzigen: klik op de groene knoppen met een zwart kruis om in te zoomen, op de groene knop met een streepje om uit te zoomen of op de groene pijlen voor aangrenzende kaarten.


METAR-TAF: